sensor_id;sensor_type;location;lat;lon;timestamp;temperature;humidity
27413;DHT22;14871;52.702;5.230;2023-04-08T00:00:51;10.00;99.90
27413;DHT22;14871;52.702;5.230;2023-04-08T00:03:17;9.90;99.90
27413;DHT22;14871;52.702;5.230;2023-04-08T00:05:43;9.90;99.90
27413;DHT22;14871;52.702;5.230;2023-04-08T00:08:09;9.90;99.90
27413;DHT22;14871;52.702;5.230;2023-04-08T00:10:35;10.00;99.90
27413;DHT22;14871;52.702;5.230;2023-04-08T00:13:01;9.90;99.90
27413;DHT22;14871;52.702;5.230;2023-04-08T00:15:26;10.00;99.90
27413;DHT22;14871;52.702;5.230;2023-04-08T00:17:52;10.00;99.90
27413;DHT22;14871;52.702;5.230;2023-04-08T00:20:19;10.00;99.90
27413;DHT22;14871;52.702;5.230;2023-04-08T00:22:45;10.00;99.90
27413;DHT22;14871;52.702;5.230;2023-04-08T00:25:11;9.90;99.90
27413;DHT22;14871;52.702;5.230;2023-04-08T00:27:37;10.00;99.90
27413;DHT22;14871;52.702;5.230;2023-04-08T00:30:03;10.00;99.90
27413;DHT22;14871;52.702;5.230;2023-04-08T00:32:29;9.90;99.90
27413;DHT22;14871;52.702;5.230;2023-04-08T00:34:55;9.90;99.90
27413;DHT22;14871;52.702;5.230;2023-04-08T00:37:21;9.90;99.90
27413;DHT22;14871;52.702;5.230;2023-04-08T00:39:47;9.80;99.90
27413;DHT22;14871;52.702;5.230;2023-04-08T00:42:13;9.80;99.90
27413;DHT22;14871;52.702;5.230;2023-04-08T00:44:39;9.80;99.90
27413;DHT22;14871;52.702;5.230;2023-04-08T00:47:05;9.90;99.90
27413;DHT22;14871;52.702;5.230;2023-04-08T00:49:31;9.80;99.90
27413;DHT22;14871;52.702;5.230;2023-04-08T00:51:58;9.80;99.90
27413;DHT22;14871;52.702;5.230;2023-04-08T00:54:24;9.80;99.90
27413;DHT22;14871;52.702;5.230;2023-04-08T00:56:50;9.80;99.90
27413;DHT22;14871;52.702;5.230;2023-04-08T00:59:17;9.70;99.90
27413;DHT22;14871;52.702;5.230;2023-04-08T01:01:43;9.70;99.90
27413;DHT22;14871;52.702;5.230;2023-04-08T01:04:39;9.70;99.90
27413;DHT22;14871;52.702;5.230;2023-04-08T01:07:17;9.70;99.90
27413;DHT22;14871;52.702;5.230;2023-04-08T01:09:51;9.70;99.90
27413;DHT22;14871;52.702;5.230;2023-04-08T01:12:21;9.60;99.90
27413;DHT22;14871;52.702;5.230;2023-04-08T01:14:54;9.60;99.90
27413;DHT22;14871;52.702;5.230;2023-04-08T01:17:21;9.60;99.90
27413;DHT22;14871;52.702;5.230;2023-04-08T01:19:50;9.50;99.90
27413;DHT22;14871;52.702;5.230;2023-04-08T01:24:43;9.50;99.90
27413;DHT22;14871;52.702;5.230;2023-04-08T01:27:10;9.60;99.90
27413;DHT22;14871;52.702;5.230;2023-04-08T01:29:36;9.60;99.90
27413;DHT22;14871;52.702;5.230;2023-04-08T01:32:03;9.50;99.90
27413;DHT22;14871;52.702;5.230;2023-04-08T01:34:31;9.50;99.90
27413;DHT22;14871;52.702;5.230;2023-04-08T01:36:59;9.50;99.90
27413;DHT22;14871;52.702;5.230;2023-04-08T01:39:26;9.50;99.90
27413;DHT22;14871;52.702;5.230;2023-04-08T01:41:53;9.50;99.90
27413;DHT22;14871;52.702;5.230;2023-04-08T01:44:21;9.50;99.90
27413;DHT22;14871;52.702;5.230;2023-04-08T01:46:47;9.60;99.90
27413;DHT22;14871;52.702;5.230;2023-04-08T01:49:15;9.50;99.90
27413;DHT22;14871;52.702;5.230;2023-04-08T01:51:42;9.40;99.90
27413;DHT22;14871;52.702;5.230;2023-04-08T01:54:09;9.50;99.90
27413;DHT22;14871;52.702;5.230;2023-04-08T01:56:41;9.50;99.90
27413;DHT22;14871;52.702;5.230;2023-04-08T01:59:10;9.50;99.90
27413;DHT22;14871;52.702;5.230;2023-04-08T02:01:37;9.40;99.90
27413;DHT22;14871;52.702;5.230;2023-04-08T02:04:03;9.40;99.90
27413;DHT22;14871;52.702;5.230;2023-04-08T02:06:29;9.40;99.90
27413;DHT22;14871;52.702;5.230;2023-04-08T02:08:58;9.40;99.90
27413;DHT22;14871;52.702;5.230;2023-04-08T02:11:23;9.40;99.90
27413;DHT22;14871;52.702;5.230;2023-04-08T02:13:51;9.40;99.90
27413;DHT22;14871;52.702;5.230;2023-04-08T02:16:37;9.30;99.90
27413;DHT22;14871;52.702;5.230;2023-04-08T02:19:13;9.30;99.90
27413;DHT22;14871;52.702;5.230;2023-04-08T02:21:47;9.30;99.90
27413;DHT22;14871;52.702;5.230;2023-04-08T02:24:16;9.20;99.90
27413;DHT22;14871;52.702;5.230;2023-04-08T02:26:43;9.10;99.90
27413;DHT22;14871;52.702;5.230;2023-04-08T02:29:14;9.20;99.90
27413;DHT22;14871;52.702;5.230;2023-04-08T02:31:41;9.30;99.90
27413;DHT22;14871;52.702;5.230;2023-04-08T02:34:09;9.20;99.90
27413;DHT22;14871;52.702;5.230;2023-04-08T02:36:36;9.10;99.90
27413;DHT22;14871;52.702;5.230;2023-04-08T02:39:03;9.10;99.90
27413;DHT22;14871;52.702;5.230;2023-04-08T02:41:30;9.20;99.90
27413;DHT22;14871;52.702;5.230;2023-04-08T02:43:56;9.20;99.90
27413;DHT22;14871;52.702;5.230;2023-04-08T02:46:22;9.10;99.90
27413;DHT22;14871;52.702;5.230;2023-04-08T02:48:48;9.10;99.90
27413;DHT22;14871;52.702;5.230;2023-04-08T02:51:14;9.10;99.90
27413;DHT22;14871;52.702;5.230;2023-04-08T02:53:40;9.10;99.90
27413;DHT22;14871;52.702;5.230;2023-04-08T02:56:09;9.00;99.90
27413;DHT22;14871;52.702;5.230;2023-04-08T02:58:35;9.00;99.90
27413;DHT22;14871;52.702;5.230;2023-04-08T03:01:01;8.90;99.90
27413;DHT22;14871;52.702;5.230;2023-04-08T03:03:27;8.90;99.90
27413;DHT22;14871;52.702;5.230;2023-04-08T03:05:55;9.00;99.90
27413;DHT22;14871;52.702;5.230;2023-04-08T03:08:21;9.00;99.90
27413;DHT22;14871;52.702;5.230;2023-04-08T03:10:47;8.90;99.90
27413;DHT22;14871;52.702;5.230;2023-04-08T03:13:14;8.80;99.90
27413;DHT22;14871;52.702;5.230;2023-04-08T03:15:40;8.80;99.90
27413;DHT22;14871;52.702;5.230;2023-04-08T03:18:06;8.80;99.90
27413;DHT22;14871;52.702;5.230;2023-04-08T03:20:32;8.70;99.90
27413;DHT22;14871;52.702;5.230;2023-04-08T03:22:58;8.70;99.90
27413;DHT22;14871;52.702;5.230;2023-04-08T03:25:24;8.60;99.90
27413;DHT22;14871;52.702;5.230;2023-04-08T03:27:51;8.60;99.90
27413;DHT22;14871;52.702;5.230;2023-04-08T03:30:17;8.60;99.90
27413;DHT22;14871;52.702;5.230;2023-04-08T03:32:43;8.60;99.90
27413;DHT22;14871;52.702;5.230;2023-04-08T03:35:08;8.60;99.90
27413;DHT22;14871;52.702;5.230;2023-04-08T03:37:34;8.50;99.90
27413;DHT22;14871;52.702;5.230;2023-04-08T03:40:00;8.50;99.90
27413;DHT22;14871;52.702;5.230;2023-04-08T03:42:26;8.40;99.90
27413;DHT22;14871;52.702;5.230;2023-04-08T03:44:52;8.40;99.90
27413;DHT22;14871;52.702;5.230;2023-04-08T03:47:17;8.40;99.90
27413;DHT22;14871;52.702;5.230;2023-04-08T03:49:43;8.40;99.90
27413;DHT22;14871;52.702;5.230;2023-04-08T03:52:09;8.40;99.90
27413;DHT22;14871;52.702;5.230;2023-04-08T03:54:34;8.40;99.90
27413;DHT22;14871;52.702;5.230;2023-04-08T03:57:00;8.30;99.90
27413;DHT22;14871;52.702;5.230;2023-04-08T03:59:26;8.20;99.90
27413;DHT22;14871;52.702;5.230;2023-04-08T04:01:51;8.30;99.90
27413;DHT22;14871;52.702;5.230;2023-04-08T04:04:18;8.30;99.90
27413;DHT22;14871;52.702;5.230;2023-04-08T04:06:44;8.30;99.90
27413;DHT22;14871;52.702;5.230;2023-04-08T04:09:09;8.20;99.90
27413;DHT22;14871;52.702;5.230;2023-04-08T04:11:36;8.30;99.90
27413;DHT22;14871;52.702;5.230;2023-04-08T04:14:02;8.30;99.90
27413;DHT22;14871;52.702;5.230;2023-04-08T04:16:28;8.30;99.90
27413;DHT22;14871;52.702;5.230;2023-04-08T04:18:53;8.20;99.90
27413;DHT22;14871;52.702;5.230;2023-04-08T04:21:19;8.30;99.90
27413;DHT22;14871;52.702;5.230;2023-04-08T04:23:45;8.20;99.90
27413;DHT22;14871;52.702;5.230;2023-04-08T04:26:11;8.20;99.90
27413;DHT22;14871;52.702;5.230;2023-04-08T04:28:37;8.20;99.90
27413;DHT22;14871;52.702;5.230;2023-04-08T04:31:03;8.10;99.90
27413;DHT22;14871;52.702;5.230;2023-04-08T04:33:30;8.10;99.90
27413;DHT22;14871;52.702;5.230;2023-04-08T04:35:56;8.10;99.90
27413;DHT22;14871;52.702;5.230;2023-04-08T04:38:21;8.00;99.90
27413;DHT22;14871;52.702;5.230;2023-04-08T04:40:47;8.00;99.90
27413;DHT22;14871;52.702;5.230;2023-04-08T04:43:13;8.00;99.90
27413;DHT22;14871;52.702;5.230;2023-04-08T04:45:38;8.00;99.90
27413;DHT22;14871;52.702;5.230;2023-04-08T04:48:05;8.00;99.90
27413;DHT22;14871;52.702;5.230;2023-04-08T04:50:31;8.00;99.90
27413;DHT22;14871;52.702;5.230;2023-04-08T04:52:56;8.00;99.90
27413;DHT22;14871;52.702;5.230;2023-04-08T04:55:23;8.00;99.90
27413;DHT22;14871;52.702;5.230;2023-04-08T04:57:49;8.00;99.90
27413;DHT22;14871;52.702;5.230;2023-04-08T05:00:15;8.00;99.90
27413;DHT22;14871;52.702;5.230;2023-04-08T05:02:42;8.00;99.90
27413;DHT22;14871;52.702;5.230;2023-04-08T05:05:08;7.90;99.90
27413;DHT22;14871;52.702;5.230;2023-04-08T05:07:37;8.00;99.90
27413;DHT22;14871;52.702;5.230;2023-04-08T05:10:04;8.00;99.90
27413;DHT22;14871;52.702;5.230;2023-04-08T05:12:30;8.00;99.90
27413;DHT22;14871;52.702;5.230;2023-04-08T05:14:59;8.00;99.90
27413;DHT22;14871;52.702;5.230;2023-04-08T05:17:25;8.00;99.90
27413;DHT22;14871;52.702;5.230;2023-04-08T05:19:51;8.00;99.90
27413;DHT22;14871;52.702;5.230;2023-04-08T05:22:18;8.00;99.90
27413;DHT22;14871;52.702;5.230;2023-04-08T05:24:43;8.10;99.90
27413;DHT22;14871;52.702;5.230;2023-04-08T05:27:09;8.10;99.90
27413;DHT22;14871;52.702;5.230;2023-04-08T05:29:35;8.10;99.90
27413;DHT22;14871;52.702;5.230;2023-04-08T05:32:01;8.20;99.90
27413;DHT22;14871;52.702;5.230;2023-04-08T05:34:26;8.20;99.90
27413;DHT22;14871;52.702;5.230;2023-04-08T05:36:52;8.20;99.90
27413;DHT22;14871;52.702;5.230;2023-04-08T05:39:18;8.30;99.90
27413;DHT22;14871;52.702;5.230;2023-04-08T05:41:44;8.20;99.90
27413;DHT22;14871;52.702;5.230;2023-04-08T05:44:11;8.30;99.90
27413;DHT22;14871;52.702;5.230;2023-04-08T05:46:37;8.30;99.90
27413;DHT22;14871;52.702;5.230;2023-04-08T05:49:03;8.30;99.90
27413;DHT22;14871;52.702;5.230;2023-04-08T05:51:29;8.40;99.90
27413;DHT22;14871;52.702;5.230;2023-04-08T05:53:54;8.40;99.90
27413;DHT22;14871;52.702;5.230;2023-04-08T05:56:20;8.40;99.90
27413;DHT22;14871;52.702;5.230;2023-04-08T05:58:46;8.40;99.90
27413;DHT22;14871;52.702;5.230;2023-04-08T06:01:12;8.50;99.90
27413;DHT22;14871;52.702;5.230;2023-04-08T06:03:37;8.50;99.90
27413;DHT22;14871;52.702;5.230;2023-04-08T06:06:08;8.50;99.90
27413;DHT22;14871;52.702;5.230;2023-04-08T06:08:33;8.60;99.90
27413;DHT22;14871;52.702;5.230;2023-04-08T06:10:59;8.50;99.90
27413;DHT22;14871;52.702;5.230;2023-04-08T06:13:25;8.60;99.90
27413;DHT22;14871;52.702;5.230;2023-04-08T06:15:51;8.70;99.90
27413;DHT22;14871;52.702;5.230;2023-04-08T06:18:16;8.70;99.90
27413;DHT22;14871;52.702;5.230;2023-04-08T06:20:42;8.70;99.90
27413;DHT22;14871;52.702;5.230;2023-04-08T06:23:08;8.70;99.90
27413;DHT22;14871;52.702;5.230;2023-04-08T06:25:33;8.80;99.90
27413;DHT22;14871;52.702;5.230;2023-04-08T06:27:59;8.80;99.90
27413;DHT22;14871;52.702;5.230;2023-04-08T06:30:25;8.80;99.90
27413;DHT22;14871;52.702;5.230;2023-04-08T06:32:50;8.80;99.90
27413;DHT22;14871;52.702;5.230;2023-04-08T06:35:16;8.90;99.90
27413;DHT22;14871;52.702;5.230;2023-04-08T06:37:42;9.00;99.90
27413;DHT22;14871;52.702;5.230;2023-04-08T06:40:08;9.10;99.90
27413;DHT22;14871;52.702;5.230;2023-04-08T06:42:34;9.00;99.90
27413;DHT22;14871;52.702;5.230;2023-04-08T06:45:00;9.10;99.90
27413;DHT22;14871;52.702;5.230;2023-04-08T06:47:26;9.20;99.90
27413;DHT22;14871;52.702;5.230;2023-04-08T06:49:52;9.30;99.90
27413;DHT22;14871;52.702;5.230;2023-04-08T06:52:18;9.40;99.90
27413;DHT22;14871;52.702;5.230;2023-04-08T06:54:44;9.50;99.90
27413;DHT22;14871;52.702;5.230;2023-04-08T06:57:10;9.40;99.90
27413;DHT22;14871;52.702;5.230;2023-04-08T06:59:36;9.60;99.90
27413;DHT22;14871;52.702;5.230;2023-04-08T07:02:02;9.80;99.90
27413;DHT22;14871;52.702;5.230;2023-04-08T07:04:28;10.00;99.90
27413;DHT22;14871;52.702;5.230;2023-04-08T07:06:53;10.10;99.90
27413;DHT22;14871;52.702;5.230;2023-04-08T07:09:19;10.20;99.90
27413;DHT22;14871;52.702;5.230;2023-04-08T07:11:45;10.30;99.90
27413;DHT22;14871;52.702;5.230;2023-04-08T07:14:11;10.40;99.90
27413;DHT22;14871;52.702;5.230;2023-04-08T07:16:37;10.40;99.90
27413;DHT22;14871;52.702;5.230;2023-04-08T07:19:02;10.50;99.90
27413;DHT22;14871;52.702;5.230;2023-04-08T07:21:28;10.60;99.90
27413;DHT22;14871;52.702;5.230;2023-04-08T07:23:55;10.70;99.90
27413;DHT22;14871;52.702;5.230;2023-04-08T07:26:21;10.90;99.90
27413;DHT22;14871;52.702;5.230;2023-04-08T07:28:47;10.90;99.90
27413;DHT22;14871;52.702;5.230;2023-04-08T07:31:15;11.00;99.90
27413;DHT22;14871;52.702;5.230;2023-04-08T07:33:42;11.10;99.90
27413;DHT22;14871;52.702;5.230;2023-04-08T07:36:09;11.20;99.90
27413;DHT22;14871;52.702;5.230;2023-04-08T07:38:35;11.40;99.90
27413;DHT22;14871;52.702;5.230;2023-04-08T07:41:01;11.60;99.90
27413;DHT22;14871;52.702;5.230;2023-04-08T07:43:26;11.70;99.90
27413;DHT22;14871;52.702;5.230;2023-04-08T07:45:52;11.90;99.90
27413;DHT22;14871;52.702;5.230;2023-04-08T07:48:18;11.90;99.90
27413;DHT22;14871;52.702;5.230;2023-04-08T07:50:43;12.00;99.90
27413;DHT22;14871;52.702;5.230;2023-04-08T07:53:11;12.10;99.90
27413;DHT22;14871;52.702;5.230;2023-04-08T07:55:36;12.10;99.90
27413;DHT22;14871;52.702;5.230;2023-04-08T07:58:04;12.30;99.90
27413;DHT22;14871;52.702;5.230;2023-04-08T08:00:31;12.40;99.90
27413;DHT22;14871;52.702;5.230;2023-04-08T08:02:57;12.60;99.90
27413;DHT22;14871;52.702;5.230;2023-04-08T08:05:23;12.40;99.90
27413;DHT22;14871;52.702;5.230;2023-04-08T08:07:48;12.50;99.90
27413;DHT22;14871;52.702;5.230;2023-04-08T08:10:15;12.50;99.90
27413;DHT22;14871;52.702;5.230;2023-04-08T08:12:40;12.70;99.90
27413;DHT22;14871;52.702;5.230;2023-04-08T08:15:07;12.80;99.90
27413;DHT22;14871;52.702;5.230;2023-04-08T08:17:32;12.90;99.90
27413;DHT22;14871;52.702;5.230;2023-04-08T08:19:59;13.00;99.90
27413;DHT22;14871;52.702;5.230;2023-04-08T08:22:25;13.20;99.90
27413;DHT22;14871;52.702;5.230;2023-04-08T08:24:56;13.40;99.90
27413;DHT22;14871;52.702;5.230;2023-04-08T08:27:22;13.70;99.90
27413;DHT22;14871;52.702;5.230;2023-04-08T08:29:48;13.90;99.90
27413;DHT22;14871;52.702;5.230;2023-04-08T08:32:13;14.10;99.90
27413;DHT22;14871;52.702;5.230;2023-04-08T08:34:39;14.20;99.90
27413;DHT22;14871;52.702;5.230;2023-04-08T08:37:05;14.30;99.90
27413;DHT22;14871;52.702;5.230;2023-04-08T08:39:30;14.50;99.90
27413;DHT22;14871;52.702;5.230;2023-04-08T08:41:59;14.60;99.90
27413;DHT22;14871;52.702;5.230;2023-04-08T08:44:25;14.70;99.90
27413;DHT22;14871;52.702;5.230;2023-04-08T08:46:51;14.90;99.90
27413;DHT22;14871;52.702;5.230;2023-04-08T08:49:17;15.00;99.90
27413;DHT22;14871;52.702;5.230;2023-04-08T08:51:45;15.20;99.90
27413;DHT22;14871;52.702;5.230;2023-04-08T08:54:12;15.20;99.90
27413;DHT22;14871;52.702;5.230;2023-04-08T08:56:39;15.20;99.90
27413;DHT22;14871;52.702;5.230;2023-04-08T08:59:07;15.30;99.90
27413;DHT22;14871;52.702;5.230;2023-04-08T09:01:35;15.40;99.90
27413;DHT22;14871;52.702;5.230;2023-04-08T09:06:34;15.60;99.90
27413;DHT22;14871;52.702;5.230;2023-04-08T09:08:59;15.80;99.90
27413;DHT22;14871;52.702;5.230;2023-04-08T09:11:27;15.90;99.90
27413;DHT22;14871;52.702;5.230;2023-04-08T09:13:52;16.10;99.90
27413;DHT22;14871;52.702;5.230;2023-04-08T09:16:18;16.10;99.90
27413;DHT22;14871;52.702;5.230;2023-04-08T09:18:45;16.30;99.90
27413;DHT22;14871;52.702;5.230;2023-04-08T09:21:15;16.40;99.90
27413;DHT22;14871;52.702;5.230;2023-04-08T09:23:46;16.60;99.90
27413;DHT22;14871;52.702;5.230;2023-04-08T09:26:14;16.80;99.90
27413;DHT22;14871;52.702;5.230;2023-04-08T09:28:41;16.70;99.90
27413;DHT22;14871;52.702;5.230;2023-04-08T09:31:21;16.70;99.90
27413;DHT22;14871;52.702;5.230;2023-04-08T09:33:49;16.80;99.90
27413;DHT22;14871;52.702;5.230;2023-04-08T09:36:15;17.00;99.90
27413;DHT22;14871;52.702;5.230;2023-04-08T09:38:45;17.20;99.90
27413;DHT22;14871;52.702;5.230;2023-04-08T09:41:16;17.30;99.90
27413;DHT22;14871;52.702;5.230;2023-04-08T09:43:47;17.40;99.90
27413;DHT22;14871;52.702;5.230;2023-04-08T09:46:17;17.60;99.90
27413;DHT22;14871;52.702;5.230;2023-04-08T09:48:57;17.70;99.90
27413;DHT22;14871;52.702;5.230;2023-04-08T09:51:28;17.80;99.90
27413;DHT22;14871;52.702;5.230;2023-04-08T09:54:00;17.90;99.90
27413;DHT22;14871;52.702;5.230;2023-04-08T09:56:32;18.10;99.90
27413;DHT22;14871;52.702;5.230;2023-04-08T09:59:05;18.20;99.90
27413;DHT22;14871;52.702;5.230;2023-04-08T10:01:51;18.40;99.90
27413;DHT22;14871;52.702;5.230;2023-04-08T10:04:20;18.40;99.60
27413;DHT22;14871;52.702;5.230;2023-04-08T10:06:56;18.30;99.30
27413;DHT22;14871;52.702;5.230;2023-04-08T10:09:25;18.50;99.90
27413;DHT22;14871;52.702;5.230;2023-04-08T10:11:51;18.60;99.90
27413;DHT22;14871;52.702;5.230;2023-04-08T10:14:18;18.80;99.70
27413;DHT22;14871;52.702;5.230;2023-04-08T10:16:46;19.10;99.60
27413;DHT22;14871;52.702;5.230;2023-04-08T10:19:37;19.10;99.20
27413;DHT22;14871;52.702;5.230;2023-04-08T10:28:16;19.60;98.00
27413;DHT22;14871;52.702;5.230;2023-04-08T10:30:54;19.60;98.20
27413;DHT22;14871;52.702;5.230;2023-04-08T10:33:31;19.70;97.60
27413;DHT22;14871;52.702;5.230;2023-04-08T10:36:10;19.70;97.20
27413;DHT22;14871;52.702;5.230;2023-04-08T10:38:39;19.80;98.00
27413;DHT22;14871;52.702;5.230;2023-04-08T10:41:07;19.90;97.60
27413;DHT22;14871;52.702;5.230;2023-04-08T10:43:34;20.10;97.00
27413;DHT22;14871;52.702;5.230;2023-04-08T10:46:01;20.30;95.70
27413;DHT22;14871;52.702;5.230;2023-04-08T10:48:27;20.50;94.80
27413;DHT22;14871;52.702;5.230;2023-04-08T10:51:00;20.70;94.90
27413;DHT22;14871;52.702;5.230;2023-04-08T10:53:27;20.70;94.30
27413;DHT22;14871;52.702;5.230;2023-04-08T10:56:01;20.70;94.20
27413;DHT22;14871;52.702;5.230;2023-04-08T10:58:27;20.80;94.30
27413;DHT22;14871;52.702;5.230;2023-04-08T11:00:53;20.70;94.00
27413;DHT22;14871;52.702;5.230;2023-04-08T11:03:18;20.60;93.90
27413;DHT22;14871;52.702;5.230;2023-04-08T11:05:44;20.50;94.00
27413;DHT22;14871;52.702;5.230;2023-04-08T11:08:10;20.40;93.90
27413;DHT22;14871;52.702;5.230;2023-04-08T11:10:36;20.60;93.80
27413;DHT22;14871;52.702;5.230;2023-04-08T11:13:08;20.60;93.30
27413;DHT22;14871;52.702;5.230;2023-04-08T11:15:35;20.60;93.40
27413;DHT22;14871;52.702;5.230;2023-04-08T11:18:02;20.30;93.20
27413;DHT22;14871;52.702;5.230;2023-04-08T11:20:29;20.60;93.50
27413;DHT22;14871;52.702;5.230;2023-04-08T11:22:54;20.50;93.40
27413;DHT22;14871;52.702;5.230;2023-04-08T11:25:20;20.60;93.90
27413;DHT22;14871;52.702;5.230;2023-04-08T11:27:48;20.30;92.60
27413;DHT22;14871;52.702;5.230;2023-04-08T11:30:13;20.40;92.80
27413;DHT22;14871;52.702;5.230;2023-04-08T11:32:39;20.50;93.70
27413;DHT22;14871;52.702;5.230;2023-04-08T11:35:06;20.60;93.00
27413;DHT22;14871;52.702;5.230;2023-04-08T11:37:41;20.70;92.60
27413;DHT22;14871;52.702;5.230;2023-04-08T11:40:10;20.70;90.90
27413;DHT22;14871;52.702;5.230;2023-04-08T11:42:37;20.90;92.50
27413;DHT22;14871;52.702;5.230;2023-04-08T11:45:11;21.00;92.10
27413;DHT22;14871;52.702;5.230;2023-04-08T11:47:37;21.30;91.50
27413;DHT22;14871;52.702;5.230;2023-04-08T11:50:03;21.50;91.00
27413;DHT22;14871;52.702;5.230;2023-04-08T11:55:29;21.60;90.50
27413;DHT22;14871;52.702;5.230;2023-04-08T11:58:00;21.80;90.00
27413;DHT22;14871;52.702;5.230;2023-04-08T12:00:26;22.10;90.00
27413;DHT22;14871;52.702;5.230;2023-04-08T12:02:52;22.20;88.80
27413;DHT22;14871;52.702;5.230;2023-04-08T12:05:19;22.30;87.20
27413;DHT22;14871;52.702;5.230;2023-04-08T12:07:45;22.30;87.00
27413;DHT22;14871;52.702;5.230;2023-04-08T12:10:12;22.50;86.20
27413;DHT22;14871;52.702;5.230;2023-04-08T12:12:38;22.70;86.80
27413;DHT22;14871;52.702;5.230;2023-04-08T12:15:05;22.70;84.70
27413;DHT22;14871;52.702;5.230;2023-04-08T12:17:31;22.50;84.50
27413;DHT22;14871;52.702;5.230;2023-04-08T12:19:57;22.30;85.70
27413;DHT22;14871;52.702;5.230;2023-04-08T12:22:23;22.00;85.80
27413;DHT22;14871;52.702;5.230;2023-04-08T12:24:48;21.90;87.30
27413;DHT22;14871;52.702;5.230;2023-04-08T12:27:14;21.70;89.40
27413;DHT22;14871;52.702;5.230;2023-04-08T12:29:40;21.40;88.50
27413;DHT22;14871;52.702;5.230;2023-04-08T12:32:06;21.10;89.20
27413;DHT22;14871;52.702;5.230;2023-04-08T12:34:32;20.60;90.10
27413;DHT22;14871;52.702;5.230;2023-04-08T12:36:57;20.60;90.70
27413;DHT22;14871;52.702;5.230;2023-04-08T12:39:23;20.30;90.80
27413;DHT22;14871;52.702;5.230;2023-04-08T12:41:49;20.10;91.10
27413;DHT22;14871;52.702;5.230;2023-04-08T12:44:15;19.90;91.40
27413;DHT22;14871;52.702;5.230;2023-04-08T12:46:40;19.90;91.20
27413;DHT22;14871;52.702;5.230;2023-04-08T12:49:06;19.90;91.10
27413;DHT22;14871;52.702;5.230;2023-04-08T12:51:32;20.00;91.60
27413;DHT22;14871;52.702;5.230;2023-04-08T12:53:57;19.90;91.10
27413;DHT22;14871;52.702;5.230;2023-04-08T12:56:24;20.00;91.10
27413;DHT22;14871;52.702;5.230;2023-04-08T12:58:50;19.90;90.80
27413;DHT22;14871;52.702;5.230;2023-04-08T13:01:16;19.80;90.90
27413;DHT22;14871;52.702;5.230;2023-04-08T13:03:41;19.70;91.00
27413;DHT22;14871;52.702;5.230;2023-04-08T13:06:07;19.70;91.50
27413;DHT22;14871;52.702;5.230;2023-04-08T13:08:32;19.60;91.40
27413;DHT22;14871;52.702;5.230;2023-04-08T13:10:58;19.70;91.90
27413;DHT22;14871;52.702;5.230;2023-04-08T13:13:24;19.60;92.20
27413;DHT22;14871;52.702;5.230;2023-04-08T13:15:49;19.60;92.10
27413;DHT22;14871;52.702;5.230;2023-04-08T13:18:16;19.50;92.10
27413;DHT22;14871;52.702;5.230;2023-04-08T13:20:41;19.40;92.50
27413;DHT22;14871;52.702;5.230;2023-04-08T13:23:07;19.30;92.30
27413;DHT22;14871;52.702;5.230;2023-04-08T13:25:32;19.50;92.70
27413;DHT22;14871;52.702;5.230;2023-04-08T13:27:58;19.40;92.80
27413;DHT22;14871;52.702;5.230;2023-04-08T13:30:24;19.40;93.20
27413;DHT22;14871;52.702;5.230;2023-04-08T13:32:49;19.40;93.30
27413;DHT22;14871;52.702;5.230;2023-04-08T13:35:15;19.30;93.50
27413;DHT22;14871;52.702;5.230;2023-04-08T13:37:41;19.30;93.70
27413;DHT22;14871;52.702;5.230;2023-04-08T13:40:06;19.50;93.80
27413;DHT22;14871;52.702;5.230;2023-04-08T13:42:33;19.50;93.80
27413;DHT22;14871;52.702;5.230;2023-04-08T13:44:59;19.50;93.80
27413;DHT22;14871;52.702;5.230;2023-04-08T13:47:25;19.60;93.90
27413;DHT22;14871;52.702;5.230;2023-04-08T13:49:51;19.60;93.60
27413;DHT22;14871;52.702;5.230;2023-04-08T13:52:18;19.70;94.10
27413;DHT22;14871;52.702;5.230;2023-04-08T13:54:43;19.80;94.00
27413;DHT22;14871;52.702;5.230;2023-04-08T13:57:09;19.60;94.10
27413;DHT22;14871;52.702;5.230;2023-04-08T13:59:34;19.50;93.90
27413;DHT22;14871;52.702;5.230;2023-04-08T14:02:00;19.50;94.10
27413;DHT22;14871;52.702;5.230;2023-04-08T14:04:26;19.50;93.70
27413;DHT22;14871;52.702;5.230;2023-04-08T14:06:51;19.40;94.20
27413;DHT22;14871;52.702;5.230;2023-04-08T14:09:18;19.40;94.10
27413;DHT22;14871;52.702;5.230;2023-04-08T14:11:43;19.40;93.40
27413;DHT22;14871;52.702;5.230;2023-04-08T14:14:09;19.20;94.00
27413;DHT22;14871;52.702;5.230;2023-04-08T14:16:35;19.20;94.40
27413;DHT22;14871;52.702;5.230;2023-04-08T14:19:01;19.40;94.00
27413;DHT22;14871;52.702;5.230;2023-04-08T14:21:27;19.50;93.60
27413;DHT22;14871;52.702;5.230;2023-04-08T14:23:53;19.60;93.60
27413;DHT22;14871;52.702;5.230;2023-04-08T14:26:19;19.90;93.40
27413;DHT22;14871;52.702;5.230;2023-04-08T14:28:45;20.10;92.60
27413;DHT22;14871;52.702;5.230;2023-04-08T14:31:12;20.00;92.90
27413;DHT22;14871;52.702;5.230;2023-04-08T14:33:38;20.00;92.70
27413;DHT22;14871;52.702;5.230;2023-04-08T14:36:04;20.00;92.80
27413;DHT22;14871;52.702;5.230;2023-04-08T14:38:30;19.90;93.00
27413;DHT22;14871;52.702;5.230;2023-04-08T14:40:56;20.10;93.30
27413;DHT22;14871;52.702;5.230;2023-04-08T14:43:22;20.20;93.00
27413;DHT22;14871;52.702;5.230;2023-04-08T14:45:49;20.20;92.90
27413;DHT22;14871;52.702;5.230;2023-04-08T14:48:15;20.30;92.60
27413;DHT22;14871;52.702;5.230;2023-04-08T14:50:41;20.20;92.70
27413;DHT22;14871;52.702;5.230;2023-04-08T14:53:06;20.20;92.50
27413;DHT22;14871;52.702;5.230;2023-04-08T14:55:32;20.20;92.40
27413;DHT22;14871;52.702;5.230;2023-04-08T14:57:57;20.20;92.40
27413;DHT22;14871;52.702;5.230;2023-04-08T15:00:23;20.10;92.90
27413;DHT22;14871;52.702;5.230;2023-04-08T15:02:49;20.10;92.90
27413;DHT22;14871;52.702;5.230;2023-04-08T15:05:14;20.10;92.90
27413;DHT22;14871;52.702;5.230;2023-04-08T15:07:40;20.10;93.10
27413;DHT22;14871;52.702;5.230;2023-04-08T15:10:07;20.00;93.10
27413;DHT22;14871;52.702;5.230;2023-04-08T15:12:33;19.80;93.20
27413;DHT22;14871;52.702;5.230;2023-04-08T15:14:59;19.90;93.10
27413;DHT22;14871;52.702;5.230;2023-04-08T15:17:24;20.00;93.00
27413;DHT22;14871;52.702;5.230;2023-04-08T15:19:51;20.00;92.80
27413;DHT22;14871;52.702;5.230;2023-04-08T15:22:17;20.00;93.00
27413;DHT22;14871;52.702;5.230;2023-04-08T15:24:42;19.90;93.50
27413;DHT22;14871;52.702;5.230;2023-04-08T15:27:08;19.80;93.50
27413;DHT22;14871;52.702;5.230;2023-04-08T15:29:34;19.70;93.50
27413;DHT22;14871;52.702;5.230;2023-04-08T15:32:00;19.80;93.60
27413;DHT22;14871;52.702;5.230;2023-04-08T15:34:25;19.80;93.50
27413;DHT22;14871;52.702;5.230;2023-04-08T15:36:54;19.70;93.50
27413;DHT22;14871;52.702;5.230;2023-04-08T15:39:23;19.70;93.70
27413;DHT22;14871;52.702;5.230;2023-04-08T15:41:48;19.70;93.70
27413;DHT22;14871;52.702;5.230;2023-04-08T15:44:14;19.70;93.60
27413;DHT22;14871;52.702;5.230;2023-04-08T15:46:40;19.60;93.40
27413;DHT22;14871;52.702;5.230;2023-04-08T15:49:06;19.60;93.70